sensor_id;sensor_type;location;lat;lon;timestamp;P1;durP1;ratioP1;P2;durP2;ratioP2
65459;SDS011;52058;49.822;6.754;2023-05-19T00:01:51;4.38;;;3.17;;
65459;SDS011;52058;49.822;6.754;2023-05-19T00:04:19;8.35;;;3.30;;
65459;SDS011;52058;49.822;6.754;2023-05-19T00:06:47;4.28;;;3.50;;
65459;SDS011;52058;49.822;6.754;2023-05-19T00:09:16;3.83;;;2.85;;
65459;SDS011;52058;49.822;6.754;2023-05-19T00:11:45;5.40;;;3.38;;
65459;SDS011;52058;49.822;6.754;2023-05-19T00:14:11;5.13;;;3.25;;
65459;SDS011;52058;49.822;6.754;2023-05-19T00:16:38;7.70;;;3.22;;
65459;SDS011;52058;49.822;6.754;2023-05-19T00:19:06;4.97;;;3.10;;
65459;SDS011;52058;49.822;6.754;2023-05-19T00:21:34;7.55;;;3.65;;
65459;SDS011;52058;49.822;6.754;2023-05-19T00:24:02;5.88;;;3.67;;
65459;SDS011;52058;49.822;6.754;2023-05-19T00:26:28;7.72;;;3.47;;
65459;SDS011;52058;49.822;6.754;2023-05-19T00:28:56;5.10;;;3.17;;
65459;SDS011;52058;49.822;6.754;2023-05-19T00:31:23;4.85;;;3.38;;
65459;SDS011;52058;49.822;6.754;2023-05-19T00:33:50;5.32;;;3.47;;
65459;SDS011;52058;49.822;6.754;2023-05-19T00:36:17;6.63;;;3.40;;
65459;SDS011;52058;49.822;6.754;2023-05-19T00:38:43;5.60;;;3.00;;
65459;SDS011;52058;49.822;6.754;2023-05-19T00:41:10;5.28;;;3.05;;
65459;SDS011;52058;49.822;6.754;2023-05-19T00:43:36;6.72;;;3.22;;
65459;SDS011;52058;49.822;6.754;2023-05-19T00:46:04;5.75;;;3.55;;
65459;SDS011;52058;49.822;6.754;2023-05-19T00:48:31;7.13;;;3.70;;
65459;SDS011;52058;49.822;6.754;2023-05-19T00:50:58;6.00;;;3.33;;
65459;SDS011;52058;49.822;6.754;2023-05-19T00:53:28;8.68;;;3.63;;
65459;SDS011;52058;49.822;6.754;2023-05-19T00:55:55;5.53;;;3.67;;
65459;SDS011;52058;49.822;6.754;2023-05-19T00:58:22;4.55;;;3.17;;
65459;SDS011;52058;49.822;6.754;2023-05-19T01:00:53;6.78;;;3.78;;
65459;SDS011;52058;49.822;6.754;2023-05-19T01:03:22;6.97;;;3.42;;
65459;SDS011;52058;49.822;6.754;2023-05-19T01:05:52;4.85;;;3.25;;
65459;SDS011;52058;49.822;6.754;2023-05-19T01:08:18;5.85;;;3.30;;
65459;SDS011;52058;49.822;6.754;2023-05-19T01:10:45;5.65;;;3.28;;
65459;SDS011;52058;49.822;6.754;2023-05-19T01:13:12;5.03;;;3.25;;
65459;SDS011;52058;49.822;6.754;2023-05-19T01:15:51;5.43;;;3.33;;
65459;SDS011;52058;49.822;6.754;2023-05-19T01:18:28;5.35;;;3.08;;
65459;SDS011;52058;49.822;6.754;2023-05-19T01:21:02;6.07;;;3.65;;
65459;SDS011;52058;49.822;6.754;2023-05-19T01:23:44;10.32;;;3.63;;
65459;SDS011;52058;49.822;6.754;2023-05-19T01:26:33;4.88;;;3.20;;
65459;SDS011;52058;49.822;6.754;2023-05-19T01:29:15;4.57;;;3.30;;
65459;SDS011;52058;49.822;6.754;2023-05-19T01:32:05;5.90;;;3.20;;
65459;SDS011;52058;49.822;6.754;2023-05-19T01:34:34;4.75;;;3.13;;
65459;SDS011;52058;49.822;6.754;2023-05-19T01:37:07;4.25;;;3.00;;
65459;SDS011;52058;49.822;6.754;2023-05-19T01:39:34;6.95;;;3.58;;
65459;SDS011;52058;49.822;6.754;2023-05-19T01:42:01;6.18;;;3.35;;
65459;SDS011;52058;49.822;6.754;2023-05-19T01:44:29;5.63;;;3.22;;
65459;SDS011;52058;49.822;6.754;2023-05-19T01:49:28;5.35;;;3.45;;
65459;SDS011;52058;49.822;6.754;2023-05-19T01:51:54;4.80;;;3.17;;
65459;SDS011;52058;49.822;6.754;2023-05-19T01:54:21;4.88;;;3.17;;
65459;SDS011;52058;49.822;6.754;2023-05-19T01:56:49;6.35;;;3.22;;
65459;SDS011;52058;49.822;6.754;2023-05-19T01:59:22;5.45;;;3.38;;
65459;SDS011;52058;49.822;6.754;2023-05-19T02:01:59;5.03;;;3.20;;
65459;SDS011;52058;49.822;6.754;2023-05-19T02:04:32;7.75;;;3.13;;
65459;SDS011;52058;49.822;6.754;2023-05-19T02:07:08;7.82;;;3.28;;
65459;SDS011;52058;49.822;6.754;2023-05-19T02:09:40;5.40;;;3.53;;
65459;SDS011;52058;49.822;6.754;2023-05-19T02:12:16;5.53;;;2.80;;
65459;SDS011;52058;49.822;6.754;2023-05-19T02:14:47;8.95;;;3.65;;
65459;SDS011;52058;49.822;6.754;2023-05-19T02:17:17;6.35;;;3.95;;
65459;SDS011;52058;49.822;6.754;2023-05-19T02:19:47;5.25;;;3.28;;
65459;SDS011;52058;49.822;6.754;2023-05-19T02:22:13;4.88;;;3.17;;
65459;SDS011;52058;49.822;6.754;2023-05-19T02:24:40;5.47;;;3.75;;
65459;SDS011;52058;49.822;6.754;2023-05-19T02:27:08;5.68;;;3.30;;
65459;SDS011;52058;49.822;6.754;2023-05-19T02:29:34;5.72;;;3.42;;
65459;SDS011;52058;49.822;6.754;2023-05-19T02:32:01;6.50;;;3.97;;
65459;SDS011;52058;49.822;6.754;2023-05-19T02:34:27;5.07;;;3.50;;
65459;SDS011;52058;49.822;6.754;2023-05-19T02:36:55;8.07;;;3.40;;
65459;SDS011;52058;49.822;6.754;2023-05-19T02:39:22;4.80;;;3.45;;
65459;SDS011;52058;49.822;6.754;2023-05-19T02:41:49;5.20;;;3.45;;
65459;SDS011;52058;49.822;6.754;2023-05-19T02:44:15;5.65;;;3.90;;
65459;SDS011;52058;49.822;6.754;2023-05-19T02:46:42;6.50;;;3.70;;
65459;SDS011;52058;49.822;6.754;2023-05-19T02:49:08;6.60;;;4.30;;
65459;SDS011;52058;49.822;6.754;2023-05-19T02:51:35;8.07;;;4.03;;
65459;SDS011;52058;49.822;6.754;2023-05-19T02:54:03;5.63;;;3.80;;
65459;SDS011;52058;49.822;6.754;2023-05-19T02:56:29;6.07;;;3.80;;
65459;SDS011;52058;49.822;6.754;2023-05-19T02:58:56;7.53;;;3.65;;
65459;SDS011;52058;49.822;6.754;2023-05-19T03:01:23;5.22;;;4.07;;
65459;SDS011;52058;49.822;6.754;2023-05-19T03:03:49;6.18;;;3.80;;
65459;SDS011;52058;49.822;6.754;2023-05-19T03:06:16;5.90;;;3.75;;
65459;SDS011;52058;49.822;6.754;2023-05-19T03:08:43;5.70;;;3.90;;
65459;SDS011;52058;49.822;6.754;2023-05-19T03:11:11;4.47;;;3.55;;
65459;SDS011;52058;49.822;6.754;2023-05-19T03:13:39;7.40;;;3.70;;
65459;SDS011;52058;49.822;6.754;2023-05-19T03:16:05;8.13;;;4.60;;
65459;SDS011;52058;49.822;6.754;2023-05-19T03:18:32;5.50;;;4.03;;
65459;SDS011;52058;49.822;6.754;2023-05-19T03:20:58;5.63;;;3.78;;
65459;SDS011;52058;49.822;6.754;2023-05-19T03:23:25;5.70;;;4.00;;
65459;SDS011;52058;49.822;6.754;2023-05-19T03:25:52;7.55;;;4.07;;
65459;SDS011;52058;49.822;6.754;2023-05-19T03:28:21;5.68;;;3.58;;
65459;SDS011;52058;49.822;6.754;2023-05-19T03:30:47;5.78;;;3.65;;
65459;SDS011;52058;49.822;6.754;2023-05-19T03:33:15;7.43;;;3.63;;
65459;SDS011;52058;49.822;6.754;2023-05-19T03:35:41;4.80;;;3.63;;
65459;SDS011;52058;49.822;6.754;2023-05-19T03:38:08;6.72;;;3.85;;
65459;SDS011;52058;49.822;6.754;2023-05-19T03:40:35;5.97;;;3.70;;
65459;SDS011;52058;49.822;6.754;2023-05-19T03:43:01;7.57;;;3.78;;
65459;SDS011;52058;49.822;6.754;2023-05-19T03:45:29;4.70;;;3.50;;
65459;SDS011;52058;49.822;6.754;2023-05-19T03:47:56;5.97;;;3.55;;
65459;SDS011;52058;49.822;6.754;2023-05-19T03:50:22;7.97;;;3.97;;
65459;SDS011;52058;49.822;6.754;2023-05-19T03:52:51;6.03;;;3.63;;
65459;SDS011;52058;49.822;6.754;2023-05-19T03:55:17;4.63;;;3.38;;
65459;SDS011;52058;49.822;6.754;2023-05-19T03:57:45;4.68;;;3.63;;
65459;SDS011;52058;49.822;6.754;2023-05-19T04:00:12;5.68;;;3.40;;
65459;SDS011;52058;49.822;6.754;2023-05-19T04:02:41;5.60;;;3.70;;
65459;SDS011;52058;49.822;6.754;2023-05-19T04:05:08;6.05;;;3.70;;
65459;SDS011;52058;49.822;6.754;2023-05-19T04:07:35;6.75;;;3.83;;
65459;SDS011;52058;49.822;6.754;2023-05-19T04:10:03;7.35;;;3.92;;
65459;SDS011;52058;49.822;6.754;2023-05-19T04:12:30;4.88;;;3.88;;
65459;SDS011;52058;49.822;6.754;2023-05-19T04:14:57;5.88;;;3.78;;
65459;SDS011;52058;49.822;6.754;2023-05-19T04:17:23;5.95;;;4.05;;
65459;SDS011;52058;49.822;6.754;2023-05-19T04:19:52;7.75;;;4.03;;
65459;SDS011;52058;49.822;6.754;2023-05-19T04:22:19;4.10;;;3.47;;
65459;SDS011;52058;49.822;6.754;2023-05-19T04:24:46;4.75;;;3.63;;
65459;SDS011;52058;49.822;6.754;2023-05-19T04:27:12;6.28;;;4.10;;
65459;SDS011;52058;49.822;6.754;2023-05-19T04:29:40;6.97;;;3.95;;
65459;SDS011;52058;49.822;6.754;2023-05-19T04:32:06;6.63;;;4.05;;
65459;SDS011;52058;49.822;6.754;2023-05-19T04:34:34;5.90;;;3.80;;
65459;SDS011;52058;49.822;6.754;2023-05-19T04:37:05;5.05;;;3.78;;
65459;SDS011;52058;49.822;6.754;2023-05-19T04:39:34;4.75;;;3.83;;
65459;SDS011;52058;49.822;6.754;2023-05-19T04:42:02;6.70;;;3.88;;
65459;SDS011;52058;49.822;6.754;2023-05-19T04:44:29;7.05;;;3.80;;
65459;SDS011;52058;49.822;6.754;2023-05-19T04:46:57;5.97;;;3.70;;
65459;SDS011;52058;49.822;6.754;2023-05-19T04:49:24;7.80;;;3.92;;
65459;SDS011;52058;49.822;6.754;2023-05-19T04:51:50;4.43;;;3.60;;
65459;SDS011;52058;49.822;6.754;2023-05-19T04:54:18;5.93;;;3.90;;
65459;SDS011;52058;49.822;6.754;2023-05-19T04:56:45;4.07;;;3.70;;
65459;SDS011;52058;49.822;6.754;2023-05-19T04:59:11;7.28;;;4.38;;
65459;SDS011;52058;49.822;6.754;2023-05-19T05:01:38;5.68;;;3.92;;
65459;SDS011;52058;49.822;6.754;2023-05-19T05:04:05;4.00;;;3.60;;
65459;SDS011;52058;49.822;6.754;2023-05-19T05:06:32;7.40;;;4.20;;
65459;SDS011;52058;49.822;6.754;2023-05-19T05:08:58;7.15;;;3.97;;
65459;SDS011;52058;49.822;6.754;2023-05-19T05:11:29;5.45;;;3.75;;
65459;SDS011;52058;49.822;6.754;2023-05-19T05:13:56;6.07;;;4.50;;
65459;SDS011;52058;49.822;6.754;2023-05-19T05:16:23;5.38;;;3.63;;
65459;SDS011;52058;49.822;6.754;2023-05-19T05:18:51;6.43;;;4.25;;
65459;SDS011;52058;49.822;6.754;2023-05-19T05:21:18;5.95;;;4.20;;
65459;SDS011;52058;49.822;6.754;2023-05-19T05:23:45;6.68;;;4.15;;
65459;SDS011;52058;49.822;6.754;2023-05-19T05:26:14;5.95;;;3.95;;
65459;SDS011;52058;49.822;6.754;2023-05-19T05:28:44;6.55;;;4.07;;
65459;SDS011;52058;49.822;6.754;2023-05-19T05:31:11;4.60;;;3.65;;
65459;SDS011;52058;49.822;6.754;2023-05-19T05:33:37;5.55;;;3.75;;
65459;SDS011;52058;49.822;6.754;2023-05-19T05:36:04;7.80;;;3.95;;
65459;SDS011;52058;49.822;6.754;2023-05-19T05:38:31;7.75;;;3.90;;
65459;SDS011;52058;49.822;6.754;2023-05-19T05:40:58;5.65;;;3.10;;
65459;SDS011;52058;49.822;6.754;2023-05-19T05:43:24;5.47;;;3.20;;
65459;SDS011;52058;49.822;6.754;2023-05-19T05:45:52;7.93;;;3.95;;
65459;SDS011;52058;49.822;6.754;2023-05-19T05:48:19;7.05;;;3.30;;
65459;SDS011;52058;49.822;6.754;2023-05-19T05:50:46;4.78;;;2.60;;
65459;SDS011;52058;49.822;6.754;2023-05-19T05:53:15;5.57;;;2.38;;
65459;SDS011;52058;49.822;6.754;2023-05-19T05:55:44;4.32;;;2.47;;
65459;SDS011;52058;49.822;6.754;2023-05-19T05:58:11;5.82;;;2.53;;
65459;SDS011;52058;49.822;6.754;2023-05-19T06:00:38;5.95;;;2.38;;
65459;SDS011;52058;49.822;6.754;2023-05-19T06:03:08;3.80;;;2.60;;
65459;SDS011;52058;49.822;6.754;2023-05-19T06:05:35;4.13;;;1.95;;
65459;SDS011;52058;49.822;6.754;2023-05-19T06:08:02;7.47;;;2.05;;
65459;SDS011;52058;49.822;6.754;2023-05-19T06:10:29;5.38;;;2.17;;
65459;SDS011;52058;49.822;6.754;2023-05-19T06:12:56;5.45;;;1.85;;
65459;SDS011;52058;49.822;6.754;2023-05-19T06:15:22;3.55;;;1.90;;
65459;SDS011;52058;49.822;6.754;2023-05-19T06:17:49;5.50;;;2.40;;
65459;SDS011;52058;49.822;6.754;2023-05-19T06:20:17;2.92;;;2.08;;
65459;SDS011;52058;49.822;6.754;2023-05-19T06:22:43;5.57;;;2.20;;
65459;SDS011;52058;49.822;6.754;2023-05-19T06:25:10;3.97;;;2.13;;
65459;SDS011;52058;49.822;6.754;2023-05-19T06:27:37;3.85;;;2.10;;
65459;SDS011;52058;49.822;6.754;2023-05-19T06:30:04;2.17;;;1.92;;
65459;SDS011;52058;49.822;6.754;2023-05-19T06:32:32;4.40;;;2.10;;
65459;SDS011;52058;49.822;6.754;2023-05-19T06:34:59;5.07;;;1.90;;
65459;SDS011;52058;49.822;6.754;2023-05-19T06:37:27;4.97;;;2.03;;
65459;SDS011;52058;49.822;6.754;2023-05-19T06:39:53;5.43;;;2.05;;
65459;SDS011;52058;49.822;6.754;2023-05-19T06:42:20;5.43;;;2.42;;
65459;SDS011;52058;49.822;6.754;2023-05-19T06:44:48;5.63;;;2.20;;
65459;SDS011;52058;49.822;6.754;2023-05-19T06:47:14;4.43;;;2.53;;
65459;SDS011;52058;49.822;6.754;2023-05-19T06:49:41;4.10;;;2.13;;
65459;SDS011;52058;49.822;6.754;2023-05-19T06:52:08;5.38;;;2.00;;
65459;SDS011;52058;49.822;6.754;2023-05-19T06:54:36;5.25;;;1.80;;
65459;SDS011;52058;49.822;6.754;2023-05-19T06:57:02;4.32;;;2.42;;
65459;SDS011;52058;49.822;6.754;2023-05-19T06:59:29;3.22;;;1.90;;
65459;SDS011;52058;49.822;6.754;2023-05-19T07:01:55;3.22;;;1.90;;
65459;SDS011;52058;49.822;6.754;2023-05-19T07:04:22;5.78;;;2.15;;
65459;SDS011;52058;49.822;6.754;2023-05-19T07:06:48;5.78;;;1.90;;
65459;SDS011;52058;49.822;6.754;2023-05-19T07:09:15;5.13;;;1.80;;
65459;SDS011;52058;49.822;6.754;2023-05-19T07:11:43;4.68;;;2.03;;
65459;SDS011;52058;49.822;6.754;2023-05-19T07:14:10;4.85;;;2.00;;
65459;SDS011;52058;49.822;6.754;2023-05-19T07:16:36;3.50;;;1.85;;
65459;SDS011;52058;49.822;6.754;2023-05-19T07:19:03;3.38;;;1.70;;
65459;SDS011;52058;49.822;6.754;2023-05-19T07:21:29;4.88;;;1.80;;
65459;SDS011;52058;49.822;6.754;2023-05-19T07:23:56;3.47;;;1.58;;
65459;SDS011;52058;49.822;6.754;2023-05-19T07:26:22;4.45;;;2.42;;
65459;SDS011;52058;49.822;6.754;2023-05-19T07:28:51;2.40;;;1.83;;
65459;SDS011;52058;49.822;6.754;2023-05-19T07:31:18;5.15;;;1.90;;
65459;SDS011;52058;49.822;6.754;2023-05-19T07:33:44;4.13;;;2.00;;
65459;SDS011;52058;49.822;6.754;2023-05-19T07:36:11;5.20;;;1.85;;
65459;SDS011;52058;49.822;6.754;2023-05-19T07:38:38;7.20;;;1.80;;
65459;SDS011;52058;49.822;6.754;2023-05-19T07:41:04;4.05;;;1.90;;
65459;SDS011;52058;49.822;6.754;2023-05-19T07:43:31;3.45;;;2.00;;
65459;SDS011;52058;49.822;6.754;2023-05-19T07:45:59;4.63;;;2.03;;
65459;SDS011;52058;49.822;6.754;2023-05-19T07:48:26;3.65;;;2.33;;
65459;SDS011;52058;49.822;6.754;2023-05-19T07:50:53;4.90;;;1.88;;
65459;SDS011;52058;49.822;6.754;2023-05-19T07:53:20;4.47;;;1.98;;
65459;SDS011;52058;49.822;6.754;2023-05-19T07:55:46;4.88;;;1.80;;
65459;SDS011;52058;49.822;6.754;2023-05-19T07:58:13;9.20;;;2.92;;
65459;SDS011;52058;49.822;6.754;2023-05-19T08:00:40;7.07;;;1.80;;
65459;SDS011;52058;49.822;6.754;2023-05-19T08:03:09;2.40;;;1.60;;
65459;SDS011;52058;49.822;6.754;2023-05-19T08:05:35;5.20;;;2.00;;
65459;SDS011;52058;49.822;6.754;2023-05-19T08:08:02;2.22;;;1.50;;
65459;SDS011;52058;49.822;6.754;2023-05-19T08:10:29;3.75;;;1.70;;
65459;SDS011;52058;49.822;6.754;2023-05-19T08:12:56;5.15;;;1.88;;
65459;SDS011;52058;49.822;6.754;2023-05-19T08:15:22;6.45;;;1.80;;
65459;SDS011;52058;49.822;6.754;2023-05-19T08:17:49;6.15;;;1.90;;
65459;SDS011;52058;49.822;6.754;2023-05-19T08:20:17;7.13;;;1.80;;
65459;SDS011;52058;49.822;6.754;2023-05-19T08:22:44;3.22;;;1.50;;
65459;SDS011;52058;49.822;6.754;2023-05-19T08:25:10;5.95;;;1.70;;
65459;SDS011;52058;49.822;6.754;2023-05-19T08:27:37;5.95;;;1.88;;
65459;SDS011;52058;49.822;6.754;2023-05-19T08:30:05;6.38;;;1.88;;
65459;SDS011;52058;49.822;6.754;2023-05-19T08:32:32;2.97;;;1.67;;
65459;SDS011;52058;49.822;6.754;2023-05-19T08:34:59;6.40;;;1.83;;
65459;SDS011;52058;49.822;6.754;2023-05-19T08:37:27;2.45;;;1.60;;
65459;SDS011;52058;49.822;6.754;2023-05-19T08:39:53;6.43;;;1.90;;
65459;SDS011;52058;49.822;6.754;2023-05-19T08:42:21;5.88;;;1.90;;
65459;SDS011;52058;49.822;6.754;2023-05-19T08:44:47;3.72;;;1.88;;
65459;SDS011;52058;49.822;6.754;2023-05-19T08:47:14;5.53;;;1.48;;
65459;SDS011;52058;49.822;6.754;2023-05-19T08:49:43;4.38;;;2.25;;
65459;SDS011;52058;49.822;6.754;2023-05-19T08:52:15;6.78;;;2.10;;
65459;SDS011;52058;49.822;6.754;2023-05-19T08:54:48;7.25;;;1.70;;
65459;SDS011;52058;49.822;6.754;2023-05-19T08:57:19;5.35;;;1.80;;
65459;SDS011;52058;49.822;6.754;2023-05-19T08:59:47;5.18;;;1.90;;
65459;SDS011;52058;49.822;6.754;2023-05-19T09:02:16;4.80;;;1.85;;
65459;SDS011;52058;49.822;6.754;2023-05-19T09:04:44;4.80;;;1.80;;
65459;SDS011;52058;49.822;6.754;2023-05-19T09:07:12;4.75;;;1.90;;
65459;SDS011;52058;49.822;6.754;2023-05-19T09:09:39;3.42;;;1.92;;
65459;SDS011;52058;49.822;6.754;2023-05-19T09:12:08;2.30;;;1.58;;
65459;SDS011;52058;49.822;6.754;2023-05-19T09:14:35;5.85;;;1.80;;
65459;SDS011;52058;49.822;6.754;2023-05-19T09:17:03;6.40;;;1.80;;
65459;SDS011;52058;49.822;6.754;2023-05-19T09:19:30;5.13;;;1.63;;
65459;SDS011;52058;49.822;6.754;2023-05-19T09:21:57;3.22;;;1.80;;
65459;SDS011;52058;49.822;6.754;2023-05-19T09:24:25;4.03;;;2.00;;
65459;SDS011;52058;49.822;6.754;2023-05-19T09:26:53;4.55;;;1.90;;
65459;SDS011;52058;49.822;6.754;2023-05-19T09:29:23;6.63;;;1.67;;
65459;SDS011;52058;49.822;6.754;2023-05-19T09:31:50;4.82;;;1.88;;
65459;SDS011;52058;49.822;6.754;2023-05-19T09:34:18;4.07;;;1.60;;
65459;SDS011;52058;49.822;6.754;2023-05-19T09:36:45;6.40;;;1.90;;
65459;SDS011;52058;49.822;6.754;2023-05-19T09:39:13;8.60;;;2.22;;
65459;SDS011;52058;49.822;6.754;2023-05-19T09:41:40;5.88;;;2.05;;
65459;SDS011;52058;49.822;6.754;2023-05-19T09:44:11;3.50;;;2.10;;
65459;SDS011;52058;49.822;6.754;2023-05-19T09:46:44;10.80;;;2.63;;
65459;SDS011;52058;49.822;6.754;2023-05-19T09:49:12;4.40;;;1.67;;
65459;SDS011;52058;49.822;6.754;2023-05-19T09:51:43;2.50;;;1.65;;
65459;SDS011;52058;49.822;6.754;2023-05-19T09:54:13;6.13;;;1.70;;
65459;SDS011;52058;49.822;6.754;2023-05-19T09:56:40;6.18;;;1.85;;
65459;SDS011;52058;49.822;6.754;2023-05-19T09:59:06;2.00;;;1.42;;
65459;SDS011;52058;49.822;6.754;2023-05-19T10:01:33;3.30;;;1.70;;
65459;SDS011;52058;49.822;6.754;2023-05-19T10:04:02;2.92;;;1.67;;
65459;SDS011;52058;49.822;6.754;2023-05-19T10:06:29;5.53;;;1.70;;
65459;SDS011;52058;49.822;6.754;2023-05-19T10:08:56;4.72;;;1.75;;
65459;SDS011;52058;49.822;6.754;2023-05-19T10:11:24;3.17;;;1.67;;
65459;SDS011;52058;49.822;6.754;2023-05-19T10:13:52;3.85;;;1.85;;
65459;SDS011;52058;49.822;6.754;2023-05-19T10:16:18;4.63;;;1.48;;
65459;SDS011;52058;49.822;6.754;2023-05-19T10:18:48;2.75;;;1.80;;
65459;SDS011;52058;49.822;6.754;2023-05-19T10:21:17;4.75;;;1.83;;
65459;SDS011;52058;49.822;6.754;2023-05-19T10:23:44;3.67;;;1.52;;
65459;SDS011;52058;49.822;6.754;2023-05-19T10:26:11;3.85;;;1.85;;
65459;SDS011;52058;49.822;6.754;2023-05-19T10:28:39;2.65;;;1.58;;
65459;SDS011;52058;49.822;6.754;2023-05-19T10:31:08;6.20;;;2.20;;
65459;SDS011;52058;49.822;6.754;2023-05-19T10:33:41;4.22;;;1.77;;
65459;SDS011;52058;49.822;6.754;2023-05-19T10:36:30;3.80;;;1.77;;
65459;SDS011;52058;49.822;6.754;2023-05-19T10:39:05;4.22;;;1.90;;
65459;SDS011;52058;49.822;6.754;2023-05-19T10:41:38;5.53;;;1.60;;
65459;SDS011;52058;49.822;6.754;2023-05-19T10:44:13;4.70;;;2.20;;
65459;SDS011;52058;49.822;6.754;2023-05-19T10:46:47;5.03;;;1.67;;
65459;SDS011;52058;49.822;6.754;2023-05-19T10:49:18;3.97;;;1.98;;
65459;SDS011;52058;49.822;6.754;2023-05-19T10:51:47;5.47;;;1.92;;
65459;SDS011;52058;49.822;6.754;2023-05-19T10:54:13;3.78;;;1.77;;
65459;SDS011;52058;49.822;6.754;2023-05-19T10:56:41;3.47;;;1.70;;
65459;SDS011;52058;49.822;6.754;2023-05-19T11:01:55;4.97;;;1.75;;
65459;SDS011;52058;49.822;6.754;2023-05-19T11:04:37;6.63;;;1.90;;
65459;SDS011;52058;49.822;6.754;2023-05-19T11:07:05;4.20;;;2.05;;
65459;SDS011;52058;49.822;6.754;2023-05-19T11:09:37;4.40;;;2.05;;
65459;SDS011;52058;49.822;6.754;2023-05-19T11:12:05;4.25;;;1.52;;
65459;SDS011;52058;49.822;6.754;2023-05-19T11:14:34;4.03;;;1.65;;
65459;SDS011;52058;49.822;6.754;2023-05-19T11:17:02;8.57;;;1.60;;
65459;SDS011;52058;49.822;6.754;2023-05-19T11:19:29;4.10;;;1.58;;
65459;SDS011;52058;49.822;6.754;2023-05-19T11:22:07;5.05;;;2.00;;
65459;SDS011;52058;49.822;6.754;2023-05-19T11:24:35;7.18;;;2.10;;
65459;SDS011;52058;49.822;6.754;2023-05-19T11:27:19;3.95;;;1.67;;
65459;SDS011;52058;49.822;6.754;2023-05-19T11:29:48;7.60;;;1.80;;
65459;SDS011;52058;49.822;6.754;2023-05-19T11:32:15;6.55;;;2.00;;
65459;SDS011;52058;49.822;6.754;2023-05-19T11:34:42;3.97;;;1.60;;
65459;SDS011;52058;49.822;6.754;2023-05-19T11:37:11;5.22;;;1.50;;
65459;SDS011;52058;49.822;6.754;2023-05-19T11:39:38;5.30;;;1.50;;
65459;SDS011;52058;49.822;6.754;2023-05-19T11:42:05;4.72;;;1.60;;
65459;SDS011;52058;49.822;6.754;2023-05-19T11:44:33;5.03;;;1.95;;
65459;SDS011;52058;49.822;6.754;2023-05-19T11:47:00;4.50;;;1.70;;
65459;SDS011;52058;49.822;6.754;2023-05-19T11:49:26;5.15;;;1.70;;
65459;SDS011;52058;49.822;6.754;2023-05-19T11:51:53;5.47;;;1.90;;
65459;SDS011;52058;49.822;6.754;2023-05-19T11:54:27;8.68;;;1.80;;
65459;SDS011;52058;49.822;6.754;2023-05-19T11:56:55;4.45;;;1.45;;
65459;SDS011;52058;49.822;6.754;2023-05-19T11:59:28;3.78;;;1.60;;
65459;SDS011;52058;49.822;6.754;2023-05-19T12:01:56;2.83;;;1.58;;
65459;SDS011;52058;49.822;6.754;2023-05-19T12:04:22;4.45;;;1.60;;
65459;SDS011;52058;49.822;6.754;2023-05-19T12:06:49;2.83;;;1.77;;
65459;SDS011;52058;49.822;6.754;2023-05-19T12:09:16;4.93;;;1.60;;
65459;SDS011;52058;49.822;6.754;2023-05-19T12:11:44;3.20;;;1.80;;
65459;SDS011;52058;49.822;6.754;2023-05-19T12:14:12;5.13;;;2.00;;
65459;SDS011;52058;49.822;6.754;2023-05-19T12:16:38;3.53;;;1.60;;
65459;SDS011;52058;49.822;6.754;2023-05-19T12:19:06;3.50;;;1.58;;
65459;SDS011;52058;49.822;6.754;2023-05-19T12:21:33;4.47;;;2.00;;
65459;SDS011;52058;49.822;6.754;2023-05-19T12:24:00;4.05;;;1.55;;
65459;SDS011;52058;49.822;6.754;2023-05-19T12:26:27;3.55;;;1.70;;
65459;SDS011;52058;49.822;6.754;2023-05-19T12:28:55;4.40;;;2.10;;
65459;SDS011;52058;49.822;6.754;2023-05-19T12:31:23;3.78;;;1.80;;
65459;SDS011;52058;49.822;6.754;2023-05-19T12:33:50;7.50;;;1.75;;
65459;SDS011;52058;49.822;6.754;2023-05-19T12:36:17;3.67;;;1.70;;
65459;SDS011;52058;49.822;6.754;2023-05-19T12:38:44;2.17;;;1.40;;
65459;SDS011;52058;49.822;6.754;2023-05-19T12:41:11;3.88;;;1.85;;
65459;SDS011;52058;49.822;6.754;2023-05-19T12:43:39;3.55;;;1.60;;
65459;SDS011;52058;49.822;6.754;2023-05-19T12:46:10;3.25;;;1.50;;
65459;SDS011;52058;49.822;6.754;2023-05-19T12:48:39;3.53;;;1.57;;
65459;SDS011;52058;49.822;6.754;2023-05-19T12:51:06;5.18;;;1.95;;
65459;SDS011;52058;49.822;6.754;2023-05-19T12:53:33;4.13;;;1.90;;
65459;SDS011;52058;49.822;6.754;2023-05-19T12:56:08;4.18;;;1.50;;
65459;SDS011;52058;49.822;6.754;2023-05-19T12:58:36;4.03;;;1.45;;
65459;SDS011;52058;49.822;6.754;2023-05-19T13:01:03;6.15;;;1.67;;
65459;SDS011;52058;49.822;6.754;2023-05-19T13:03:33;2.35;;;1.38;;
65459;SDS011;52058;49.822;6.754;2023-05-19T13:06:05;5.05;;;1.45;;
65459;SDS011;52058;49.822;6.754;2023-05-19T13:08:32;2.25;;;1.50;;
65459;SDS011;52058;49.822;6.754;2023-05-19T13:10:58;5.82;;;1.52;;
65459;SDS011;52058;49.822;6.754;2023-05-19T13:13:28;3.75;;;1.60;;
65459;SDS011;52058;49.822;6.754;2023-05-19T13:15:56;4.50;;;1.90;;
65459;SDS011;52058;49.822;6.754;2023-05-19T13:18:22;4.10;;;1.60;;
65459;SDS011;52058;49.822;6.754;2023-05-19T13:20:52;3.15;;;1.70;;
65459;SDS011;52058;49.822;6.754;2023-05-19T13:23:19;4.43;;;1.65;;
65459;SDS011;52058;49.822;6.754;2023-05-19T13:25:45;4.15;;;1.40;;
65459;SDS011;52058;49.822;6.754;2023-05-19T13:28:12;3.70;;;1.38;;
65459;SDS011;52058;49.822;6.754;2023-05-19T13:30:39;3.08;;;1.20;;
65459;SDS011;52058;49.822;6.754;2023-05-19T13:33:08;2.95;;;1.40;;
65459;SDS011;52058;49.822;6.754;2023-05-19T13:35:35;2.58;;;1.52;;
65459;SDS011;52058;49.822;6.754;2023-05-19T13:38:03;5.32;;;1.33;;
65459;SDS011;52058;49.822;6.754;2023-05-19T13:40:30;3.53;;;1.33;;
65459;SDS011;52058;49.822;6.754;2023-05-19T13:42:58;2.42;;;1.30;;
65459;SDS011;52058;49.822;6.754;2023-05-19T13:45:25;3.20;;;1.38;;
65459;SDS011;52058;49.822;6.754;2023-05-19T13:47:53;2.70;;;1.23;;
65459;SDS011;52058;49.822;6.754;2023-05-19T13:50:20;3.88;;;1.73;;
65459;SDS011;52058;49.822;6.754;2023-05-19T13:52:46;6.75;;;1.58;;
65459;SDS011;52058;49.822;6.754;2023-05-19T13:55:14;3.50;;;1.40;;
65459;SDS011;52058;49.822;6.754;2023-05-19T13:57:41;4.65;;;1.50;;
65459;SDS011;52058;49.822;6.754;2023-05-19T14:00:08;2.35;;;1.30;;
65459;SDS011;52058;49.822;6.754;2023-05-19T14:02:35;3.28;;;1.23;;
65459;SDS011;52058;49.822;6.754;2023-05-19T14:05:02;2.75;;;1.27;;
65459;SDS011;52058;49.822;6.754;2023-05-19T14:07:29;3.75;;;1.52;;
65459;SDS011;52058;49.822;6.754;2023-05-19T14:09:58;6.82;;;1.45;;
65459;SDS011;52058;49.822;6.754;2023-05-19T14:12:27;2.55;;;1.30;;
65459;SDS011;52058;49.822;6.754;2023-05-19T14:14:54;10.13;;;2.28;;
65459;SDS011;52058;49.822;6.754;2023-05-19T14:17:21;4.32;;;1.92;;
65459;SDS011;52058;49.822;6.754;2023-05-19T14:19:47;2.53;;;1.58;;
65459;SDS011;52058;49.822;6.754;2023-05-19T14:22:14;2.72;;;1.17;;
65459;SDS011;52058;49.822;6.754;2023-05-19T14:24:42;3.80;;;1.50;;
65459;SDS011;52058;49.822;6.754;2023-05-19T14:27:08;2.92;;;1.40;;
65459;SDS011;52058;49.822;6.754;2023-05-19T14:29:36;2.00;;;1.35;;
65459;SDS011;52058;49.822;6.754;2023-05-19T14:32:03;3.03;;;1.63;;
65459;SDS011;52058;49.822;6.754;2023-05-19T14:34:30;3.33;;;1.45;;
65459;SDS011;52058;49.822;6.754;2023-05-19T14:36:56;2.33;;;1.30;;
65459;SDS011;52058;49.822;6.754;2023-05-19T14:39:23;2.92;;;1.50;;
65459;SDS011;52058;49.822;6.754;2023-05-19T14:41:49;2.05;;;1.20;;
65459;SDS011;52058;49.822;6.754;2023-05-19T14:44:16;4.15;;;1.40;;
65459;SDS011;52058;49.822;6.754;2023-05-19T14:46:44;3.42;;;1.35;;
65459;SDS011;52058;49.822;6.754;2023-05-19T14:49:11;2.72;;;1.48;;
65459;SDS011;52058;49.822;6.754;2023-05-19T14:51:37;2.70;;;1.10;;
65459;SDS011;52058;49.822;6.754;2023-05-19T14:54:04;3.58;;;1.63;;
65459;SDS011;52058;49.822;6.754;2023-05-19T14:56:30;2.13;;;1.30;;
65459;SDS011;52058;49.822;6.754;2023-05-19T14:58:57;4.40;;;1.65;;